Terminal Aerodrome Forecast
Issued by NWS St Louis, MO

Home | Current Version | Previous Version | Text Only | Print | Product List | Glossary On
Versions: 1 2 3 4 5 6 7 8 9 10 11 12 13 14 15
790
FTUS43 KLSX 170530
TAFCOU
TAF
KCOU 170530Z 1706/1806 18008KT P6SM OVC250
     FM171100 18006KT P6SM -RA OVC050
     FM171300 18006KT 6SM -RA BR OVC015
     FM171500 19007KT 4SM BR OVC008
     FM171900 21008KT P6SM OVC015
     FM180000 21005KT 6SM BR BKN025=

USA.gov is the U.S. government's official web portal to all federal, state and local government web resources and services.